createdAt,value
2023-01-26T00:02:02.342Z,65.37
2023-01-26T00:07:04.074Z,65.32
2023-01-26T00:12:05.866Z,65.34
2023-01-26T00:17:07.510Z,65.04
2023-01-26T00:22:09.215Z,65.25
2023-01-26T00:27:10.804Z,65.45
2023-01-26T00:32:12.475Z,65.30
2023-01-26T00:37:14.081Z,65.51
2023-01-26T00:42:16.047Z,65.22
2023-01-26T00:47:18.522Z,65.33
2023-01-26T00:52:20.163Z,64.97
2023-01-26T00:57:21.749Z,64.88
2023-01-26T01:02:23.437Z,64.60
2023-01-26T01:07:25.053Z,64.77
2023-01-26T01:12:27.514Z,64.47
2023-01-26T01:17:29.187Z,64.33
2023-01-26T01:22:30.775Z,64.34
2023-01-26T01:27:32.417Z,64.04
2023-01-26T01:32:39.722Z,64.20
2023-01-26T01:37:41.419Z,64.22
2023-01-26T01:42:49.617Z,64.35
2023-01-26T01:47:53.096Z,64.29
2023-01-26T01:52:56.459Z,64.00
2023-01-26T01:58:02.953Z,63.88
2023-01-26T02:03:19.314Z,64.01
2023-01-26T02:08:25.716Z,63.79
2023-01-26T02:13:28.392Z,64.33
2023-01-26T02:18:30.340Z,64.04
2023-01-26T02:23:31.864Z,63.85
2023-01-26T02:28:33.469Z,63.87
2023-01-26T02:33:35.711Z,63.93
2023-01-26T02:38:41.388Z,63.73
2023-01-26T02:43:43.015Z,63.72
2023-01-26T02:49:03.243Z,63.70
2023-01-26T02:54:04.964Z,63.17
2023-01-26T02:59:06.813Z,63.35
2023-01-26T03:04:08.563Z,63.39
2023-01-26T03:09:10.153Z,63.00
2023-01-26T03:14:13.904Z,63.01
2023-01-26T03:19:34.613Z,63.13
2023-01-26T03:24:54.618Z,63.17
2023-01-26T03:29:57.732Z,62.83
2023-01-26T03:34:59.331Z,62.60
2023-01-26T03:40:19.691Z,62.75
2023-01-26T03:45:40.448Z,62.50
2023-01-26T03:51:00.269Z,62.89
2023-01-26T03:56:20.460Z,62.71
2023-01-26T04:01:28.215Z,62.55
2023-01-26T04:06:51.955Z,62.45
2023-01-26T04:11:53.644Z,62.25
2023-01-26T04:17:13.783Z,62.58
2023-01-26T04:22:15.731Z,62.62
2023-01-26T04:27:17.791Z,62.24
2023-01-26T04:32:19.878Z,62.12
2023-01-26T04:37:22.250Z,62.37
2023-01-26T04:42:24.852Z,62.26
2023-01-26T04:47:29.076Z,62.22
2023-01-26T04:52:30.933Z,62.33
2023-01-26T04:57:32.574Z,62.04
2023-01-26T05:02:37.508Z,62.12
2023-01-26T05:07:39.502Z,61.88
2023-01-26T05:12:42.928Z,62.15
2023-01-26T05:17:44.834Z,62.14
2023-01-26T05:22:46.903Z,62.08
2023-01-26T05:27:48.813Z,62.37
2023-01-26T05:32:50.631Z,62.56
2023-01-26T05:37:52.440Z,62.58
2023-01-26T05:42:54.933Z,62.47
2023-01-26T05:47:56.655Z,62.78
2023-01-26T05:53:00.377Z,62.81
2023-01-26T05:58:02.275Z,62.38
2023-01-26T06:03:03.893Z,62.24
2023-01-26T06:08:05.833Z,62.38
2023-01-26T06:13:07.418Z,62.36
2023-01-26T06:18:08.973Z,62.56
2023-01-26T06:23:12.152Z,62.72
2023-01-26T06:28:13.764Z,62.43
2023-01-26T06:33:15.357Z,62.38
2023-01-26T06:38:16.955Z,62.57
2023-01-26T06:43:18.549Z,62.33
2023-01-26T06:48:20.223Z,62.23
2023-01-26T06:53:30.382Z,62.36
2023-01-26T06:58:32.074Z,62.22
2023-01-26T07:03:33.699Z,62.28
2023-01-26T07:08:35.355Z,61.99
2023-01-26T07:13:37.092Z,62.03
2023-01-26T07:18:38.872Z,61.93
2023-01-26T07:23:40.483Z,61.82
2023-01-26T07:28:42.850Z,61.57
2023-01-26T07:33:45.014Z,61.95
2023-01-26T07:38:47.187Z,61.92
2023-01-26T07:43:51.039Z,61.79
2023-01-26T07:48:52.799Z,61.61
2023-01-26T07:53:55.256Z,61.64
2023-01-26T07:58:57.043Z,61.44
2023-01-26T08:03:59.620Z,61.93
2023-01-26T08:09:01.197Z,61.23
2023-01-26T08:14:02.783Z,61.18
2023-01-26T08:19:04.373Z,61.01
2023-01-26T08:24:06.931Z,61.20
2023-01-26T08:29:08.528Z,61.17
2023-01-26T08:34:10.130Z,60.91
2023-01-26T08:39:11.727Z,60.14
2023-01-26T08:44:13.455Z,60.05
2023-01-26T08:49:15.048Z,59.57
2023-01-26T08:54:16.780Z,59.15
2023-01-26T08:59:18.355Z,59.13
2023-01-26T09:04:19.935Z,59.10
2023-01-26T09:09:21.573Z,58.66
2023-01-26T09:14:23.979Z,58.06
2023-01-26T09:19:25.580Z,57.93
2023-01-26T09:24:27.294Z,57.71
2023-01-26T09:29:28.933Z,58.01
2023-01-26T09:34:30.557Z,58.12
2023-01-26T09:39:32.186Z,57.81
2023-01-26T09:44:52.700Z,57.07
2023-01-26T09:50:18.705Z,56.67
2023-01-26T09:55:23.405Z,57.02
2023-01-26T10:00:44.109Z,56.95
2023-01-26T10:05:57.694Z,58.52
2023-01-26T10:11:05.234Z,58.37
2023-01-26T10:16:11.616Z,58.41
2023-01-26T10:21:15.189Z,58.49
2023-01-26T10:26:23.943Z,58.67
2023-01-26T10:31:32.624Z,58.27
2023-01-26T10:36:34.583Z,58.49
2023-01-26T10:41:37.163Z,58.65
2023-01-26T10:46:41.347Z,58.61
2023-01-26T10:51:45.813Z,58.60
2023-01-26T10:56:59.620Z,58.51
2023-01-26T11:02:19.769Z,58.12
2023-01-26T11:07:32.404Z,57.78
2023-01-26T11:12:34.022Z,57.80
2023-01-26T11:17:48.545Z,56.98
2023-01-26T11:23:09.027Z,57.06
2023-01-26T11:28:55.537Z,56.35
2023-01-26T11:34:04.239Z,57.33
2023-01-26T11:39:12.874Z,57.13
2023-01-26T11:44:20.348Z,57.33
2023-01-26T11:49:37.267Z,58.01
2023-01-26T11:54:47.887Z,57.88
2023-01-26T11:59:59.130Z,57.70
2023-01-26T12:05:03.446Z,58.12
2023-01-26T12:10:07.832Z,58.00
2023-01-26T12:15:19.508Z,58.10
2023-01-26T12:20:45.864Z,58.01
2023-01-26T12:25:55.894Z,58.05
2023-01-26T12:31:18.061Z,57.84
2023-01-26T12:36:34.914Z,57.98
2023-01-26T12:41:42.486Z,58.04
2023-01-26T12:46:52.483Z,58.45
2023-01-26T12:52:07.857Z,58.81
2023-01-26T12:57:17.160Z,59.34
2023-01-26T13:02:28.603Z,59.29
2023-01-26T13:07:40.902Z,59.18
2023-01-26T13:12:50.428Z,59.46
2023-01-26T13:17:53.316Z,59.37
2023-01-26T13:22:56.226Z,59.28
2023-01-26T13:28:03.226Z,59.31
2023-01-26T13:33:25.334Z,59.34
2023-01-26T13:38:44.180Z,59.51
2023-01-26T13:44:10.563Z,59.82
2023-01-26T13:49:40.719Z,59.67
2023-01-26T13:54:44.113Z,59.75
2023-01-26T14:00:00.314Z,60.02
2023-01-26T14:05:03.371Z,60.64
2023-01-26T14:10:06.728Z,61.03
2023-01-26T14:15:23.317Z,61.26
2023-01-26T14:20:35.997Z,61.19
2023-01-26T14:25:49.787Z,60.76
2023-01-26T14:31:01.635Z,61.03
2023-01-26T14:36:05.229Z,61.44
2023-01-26T14:41:33.854Z,61.29
2023-01-26T14:46:38.749Z,61.62
2023-01-26T14:51:44.888Z,61.88
2023-01-26T14:56:49.106Z,62.04
2023-01-26T15:01:50.921Z,62.30
2023-01-26T15:06:52.561Z,62.16
2023-01-26T15:12:17.189Z,62.54
2023-01-26T15:17:37.443Z,62.92
2023-01-26T15:22:39.119Z,62.73
2023-01-26T15:27:40.767Z,62.98
2023-01-26T15:32:42.372Z,63.28
2023-01-26T15:37:43.984Z,63.40
2023-01-26T15:42:45.582Z,63.43
2023-01-26T15:47:47.203Z,63.64
2023-01-26T15:52:48.799Z,63.83
2023-01-26T15:57:50.430Z,63.83
2023-01-26T16:02:52.198Z,64.02
2023-01-26T16:07:53.801Z,64.01
2023-01-26T16:12:55.407Z,63.74
2023-01-26T16:17:57.027Z,63.74
2023-01-26T16:23:01.593Z,63.72
2023-01-26T16:28:03.375Z,63.63
2023-01-26T16:33:05.158Z,63.84
2023-01-26T16:38:12.812Z,64.18
2023-01-26T16:43:34.586Z,64.75
2023-01-26T16:48:37.013Z,64.76
2023-01-26T16:53:38.614Z,64.79
2023-01-26T16:58:40.555Z,65.11
2023-01-26T17:03:42.155Z,65.26
2023-01-26T17:08:44.154Z,65.52
2023-01-26T17:13:46.824Z,65.69
2023-01-26T17:18:49.279Z,66.20
2023-01-26T17:23:53.160Z,66.32
2023-01-26T17:28:56.153Z,66.11
2023-01-26T17:33:57.776Z,66.26
2023-01-26T17:38:59.495Z,66.37
2023-01-26T17:44:01.108Z,66.41
2023-01-26T17:49:02.754Z,66.40
2023-01-26T17:54:04.570Z,66.38
2023-01-26T17:59:06.252Z,66.04
2023-01-26T18:04:07.868Z,66.24
2023-01-26T18:09:09.457Z,66.51
2023-01-26T18:14:11.044Z,66.21
2023-01-26T18:19:12.697Z,66.34
2023-01-26T18:24:14.389Z,66.48
2023-01-26T18:29:16.898Z,66.29
2023-01-26T18:34:19.016Z,66.08
2023-01-26T18:39:20.632Z,66.26
2023-01-26T18:44:22.824Z,66.07
2023-01-26T18:49:24.700Z,65.81
2023-01-26T18:54:26.374Z,65.79
2023-01-26T18:59:28.296Z,65.82
2023-01-26T19:04:30.892Z,65.66
2023-01-26T19:09:34.908Z,65.51
2023-01-26T19:14:36.903Z,65.46
2023-01-26T19:19:39.718Z,65.69
2023-01-26T19:24:43.064Z,65.58
2023-01-26T19:29:44.705Z,65.49
2023-01-26T19:34:46.345Z,65.33
2023-01-26T19:39:48.011Z,65.61
2023-01-26T19:44:49.591Z,65.32
2023-01-26T19:49:51.205Z,65.41
2023-01-26T19:54:52.787Z,65.33
2023-01-26T19:59:54.820Z,65.23
2023-01-26T20:04:56.403Z,65.35
2023-01-26T20:09:58.072Z,65.26
2023-01-26T20:15:00.759Z,65.46
2023-01-26T20:20:02.811Z,65.39
2023-01-26T20:25:06.578Z,65.54
2023-01-26T20:30:11.570Z,65.56
2023-01-26T20:35:14.138Z,65.72
2023-01-26T20:40:16.001Z,65.62
2023-01-26T20:45:18.123Z,65.54
2023-01-26T20:50:19.770Z,65.49
2023-01-26T20:55:21.393Z,65.45
2023-01-26T21:00:23.012Z,65.26
2023-01-26T21:05:24.685Z,65.44
2023-01-26T21:10:26.461Z,65.42
2023-01-26T21:15:28.160Z,65.38
2023-01-26T21:20:30.247Z,65.65
2023-01-26T21:25:32.192Z,65.63
2023-01-26T21:30:34.341Z,65.48
2023-01-26T21:35:35.996Z,65.67
2023-01-26T21:40:37.714Z,65.83
2023-01-26T21:45:55.031Z,65.57
2023-01-26T21:51:18.728Z,65.58
2023-01-26T21:56:20.324Z,65.57
2023-01-26T22:01:22.358Z,65.43
2023-01-26T22:06:24.847Z,65.49
2023-01-26T22:11:27.489Z,65.67
2023-01-26T22:16:29.170Z,65.74
2023-01-26T22:21:31.793Z,65.87
2023-01-26T22:26:33.514Z,66.01
2023-01-26T22:31:35.150Z,66.31
2023-01-26T22:36:36.804Z,66.17
2023-01-26T22:41:38.435Z,65.80
2023-01-26T22:46:40.099Z,65.68
2023-01-26T22:51:41.741Z,65.74
2023-01-26T22:56:43.382Z,65.74
2023-01-26T23:01:45.094Z,65.78
2023-01-26T23:06:46.684Z,65.88
2023-01-26T23:11:48.269Z,65.98
2023-01-26T23:16:49.869Z,66.13
2023-01-26T23:21:51.799Z,66.10
2023-01-26T23:26:53.421Z,66.11
2023-01-26T23:31:55.083Z,65.98
2023-01-26T23:36:56.702Z,65.78
2023-01-26T23:41:58.303Z,65.76
2023-01-26T23:47:00.017Z,65.90
2023-01-26T23:52:01.658Z,65.76
2023-01-26T23:57:03.309Z,65.79
